Time;durP1;ratioP1;P1;durP2;ratioP2;P2;SDS_P1;SDS_P2;PMS_P1;PMS_P2;Temp;Humidity;BMP_temperature;BMP_pressure;BME280_temperature;BME280_humidity;BME280_pressure;Samples;Min_cycle;Max_cycle;Signal;HPM_P1;HPM_P2
2023/03/23 00:00:53;;;;;;;14.27;6.95;;;;;;;7.65;59.61;99641.25;4381464;32;20450;-83
2023/03/23 00:03:20;;;;;;;12.55;6.70;;;;;;;7.71;59.61;99648.03;4381224;32;20097;-84
2023/03/23 00:05:50;;;;;;;14.75;7.50;;;;;;;7.60;59.60;99640.50;4381870;32;20170;-84
2023/03/23 00:08:17;;;;;;;12.57;6.60;;;;;;;7.58;59.60;99644.88;4381347;32;20581;-84
2023/03/23 00:10:42;;;;;;;13.98;7.50;;;;;;;7.72;59.61;99638.53;4381509;32;20110;-84
2023/03/23 00:13:08;;;;;;;11.07;6.18;;;;;;;7.66;59.61;99635.19;4380751;32;23240;-84
2023/03/23 00:15:35;;;;;;;14.13;6.25;;;;;;;7.67;59.61;99639.47;4393654;32;20715;-84
2023/03/23 00:18:04;;;;;;;13.02;6.43;;;;;;;7.57;59.61;99637.97;4407854;32;20499;-84
2023/03/23 00:20:30;;;;;;;14.60;6.37;;;;;;;7.60;59.60;99640.50;4382321;32;20125;-85
2023/03/23 00:22:59;;;;;;;13.88;5.80;;;;;;;7.68;59.61;99636.00;4377222;32;20211;-84
2023/03/23 00:25:25;;;;;;;12.50;6.50;;;;;;;7.58;59.60;99639.69;4389336;32;20137;-85
2023/03/23 00:27:51;;;;;;;10.07;5.57;;;;;;;7.67;59.61;99636.03;4408305;32;20384;-84
2023/03/23 00:30:17;;;;;;;12.07;6.18;;;;;;;7.61;59.61;99634.44;4394048;32;20121;-85
2023/03/23 00:32:44;;;;;;;14.10;6.28;;;;;;;7.72;59.62;99620.37;4393559;32;20089;-84
2023/03/23 00:35:09;;;;;;;13.05;6.18;;;;;;;7.62;59.61;99628.37;4393991;32;20071;-84
2023/03/23 00:37:35;;;;;;;13.15;6.22;;;;;;;7.67;59.61;99623.94;4380871;32;20142;-84
2023/03/23 00:40:05;;;;;;;13.65;6.20;;;;;;;7.58;59.61;99621.56;4394108;32;20167;-84
2023/03/23 00:42:36;;;;;;;13.82;6.00;;;;;;;7.51;59.61;99625.16;4394106;32;20376;-84
2023/03/23 00:45:02;;;;;;;12.35;6.30;;;;;;;7.35;59.59;99621.19;4382596;32;20109;-83
2023/03/23 00:47:27;;;;;;;15.30;6.53;;;;;;;7.30;59.59;99623.84;4381321;32;20408;-84
2023/03/23 00:49:55;;;;;;;10.57;5.85;;;;;;;7.50;59.60;99631.22;4393145;32;20124;-85
2023/03/23 00:52:21;;;;;;;13.88;6.30;;;;;;;7.56;59.61;99620.72;4394148;32;20158;-84
2023/03/23 00:54:46;;;;;;;11.82;5.85;;;;;;;7.66;59.61;99618.78;4393153;32;20390;-83
2023/03/23 00:57:12;;;;;;;18.10;6.45;;;;;;;7.40;59.60;99619.34;4378570;32;20106;-84
2023/03/23 00:59:37;;;;;;;14.13;6.03;;;;;;;7.31;59.59;99622.13;4389665;32;20177;-84
2023/03/23 01:02:02;;;;;;;12.30;5.47;;;;;;;7.20;59.58;99616.31;4407759;32;20168;-85
2023/03/23 01:04:31;;;;;;;12.77;5.80;;;;;;;7.29;59.59;99614.38;4380651;32;20824;-84
2023/03/23 01:06:56;;;;;;;9.75;5.87;;;;;;;7.22;59.58;99609.38;4393932;32;20110;-84
2023/03/23 01:09:22;;;;;;;14.15;6.20;;;;;;;7.31;59.60;99615.19;4407004;32;20413;-84
2023/03/23 01:11:48;;;;;;;12.32;5.75;;;;;;;7.47;59.59;99604.53;4407761;32;20125;-84
2023/03/23 01:14:15;;;;;;;14.25;6.25;;;;;;;7.19;59.59;99606.84;4379369;32;20098;-84
2023/03/23 01:16:41;;;;;;;10.40;5.60;;;;;;;7.09;59.58;99606.16;4372689;32;20150;-84
2023/03/23 01:19:06;;;;;;;14.10;5.78;;;;;;;6.94;59.56;99609.09;4380640;32;20737;-84
2023/03/23 01:21:31;;;;;;;13.43;6.10;;;;;;;7.09;59.57;99598.41;4392380;32;20120;-85
2023/03/23 01:23:57;;;;;;;11.23;5.72;;;;;;;6.83;59.56;99605.84;4392512;32;20118;-85
2023/03/23 01:26:24;;;;;;;12.10;5.97;;;;;;;6.84;59.56;99603.22;4372858;32;20422;-85
2023/03/23 01:28:49;;;;;;;12.45;5.43;;;;;;;6.76;59.56;99603.38;4379596;32;20605;-84
2023/03/23 01:31:17;;;;;;;11.48;4.45;;;;;;;6.75;59.55;99600.81;4371905;32;20148;-85
2023/03/23 01:33:42;;;;;;;11.45;5.87;;;;;;;6.75;59.56;99600.81;4379402;32;20542;-85
2023/03/23 01:36:12;;;;;;;8.70;4.93;;;;;;;6.75;59.55;99593.06;4372009;32;20094;-85
2023/03/23 01:38:37;;;;;;;11.65;5.90;;;;;;;6.86;59.56;99598.00;4393106;32;20105;-85
2023/03/23 01:41:03;;;;;;;10.52;5.40;;;;;;;6.81;59.56;99598.09;4380475;32;21463;-85
2023/03/23 01:43:28;;;;;;;10.07;5.32;;;;;;;6.80;59.56;99592.97;4392944;32;20150;-85
2023/03/23 01:45:54;;;;;;;14.60;5.60;;;;;;;6.65;59.56;99592.38;4380179;32;25291;-85
2023/03/23 01:48:23;;;;;;;12.82;5.95;;;;;;;6.82;59.56;99594.63;4393332;32;20152;-85
2023/03/23 01:50:57;;;;;;;11.75;5.78;;;;;;;6.58;59.55;99592.50;4393748;32;20097;-85
2023/03/23 01:53:25;;;;;;;9.93;4.97;;;;;;;6.50;59.54;99589.22;4381966;32;20126;-86
2023/03/23 01:55:50;;;;;;;11.32;5.37;;;;;;;6.53;59.55;99587.44;4380809;32;20106;-85
2023/03/23 01:58:18;;;;;;;13.70;5.40;;;;;;;6.64;59.56;99585.50;4368074;32;20109;-85
2023/03/23 02:00:43;;;;;;;12.00;5.22;;;;;;;6.59;59.55;99595.06;4380785;32;20158;-85
2023/03/23 02:03:10;;;;;;;15.13;5.53;;;;;;;6.52;59.55;99593.47;4379898;32;23767;-85
2023/03/23 02:05:40;;;;;;;15.20;5.82;;;;;;;6.59;59.55;99583.88;4380810;32;20173;-85
2023/03/23 02:08:06;;;;;;;10.38;5.35;;;;;;;6.47;59.54;99592.72;4380487;32;20139;-85
2023/03/23 02:10:32;;;;;;;10.43;5.35;;;;;;;6.55;59.55;99584.81;4380656;32;20082;-85
2023/03/23 02:13:00;;;;;;;12.52;5.57;;;;;;;6.51;59.55;99581.44;4380443;32;20375;-85
2023/03/23 02:15:27;;;;;;;11.07;5.47;;;;;;;6.29;59.54;99588.72;4380563;32;20110;-85
2023/03/23 02:18:23;;;;;;;19.92;5.53;;;;;;;6.46;59.54;99597.03;4380283;32;20098;-84
2023/03/23 02:21:12;;;;;;;10.82;5.03;;;;;;;6.45;59.54;99595.34;4381035;32;20095;-85
2023/03/23 02:23:50;;;;;;;10.60;4.97;;;;;;;6.39;59.54;99594.59;4394601;32;20094;-84
2023/03/23 02:26:34;;;;;;;11.48;4.90;;;;;;;6.33;59.53;99597.25;4368595;32;20103;-85
2023/03/23 02:29:23;;;;;;;15.52;6.22;;;;;;;6.22;59.53;99599.19;4391731;32;20102;-86
2023/03/23 02:32:20;;;;;;;11.57;5.62;;;;;;;6.38;59.54;99598.03;4387991;32;20121;-85
2023/03/23 02:34:49;;;;;;;13.48;5.50;;;;;;;6.31;59.53;99597.28;4393987;32;20090;-85
2023/03/23 02:37:21;;;;;;;11.15;5.03;;;;;;;6.29;59.54;99599.06;4382177;32;20237;-84
2023/03/23 02:39:49;;;;;;;12.48;5.47;;;;;;;6.53;59.55;99602.09;4382581;32;20160;-84
2023/03/23 02:42:21;;;;;;;26.73;6.35;;;;;;;6.32;59.53;99596.41;4382024;32;20086;-85
2023/03/23 02:44:47;;;;;;;12.68;5.37;;;;;;;6.29;59.54;99599.06;4382407;32;20089;-84
2023/03/23 02:47:21;;;;;;;10.65;5.15;;;;;;;6.53;59.55;99596.91;4394415;32;20419;-84
2023/03/23 02:49:47;;;;;;;14.87;5.28;;;;;;;6.35;59.54;99600.66;4381957;32;20133;-84
2023/03/23 02:52:16;;;;;;;11.40;5.47;;;;;;;6.25;59.53;99593.97;4381906;32;20112;-84
2023/03/23 02:54:42;;;;;;;10.20;5.18;;;;;;;6.22;59.53;99599.19;4381935;32;20105;-84
2023/03/23 02:57:07;;;;;;;12.65;5.28;;;;;;;6.25;59.53;99600.00;4382428;32;20098;-84
2023/03/23 02:59:33;;;;;;;10.52;5.93;;;;;;;6.10;59.52;99600.22;4381626;32;22659;-84
2023/03/23 03:02:05;;;;;;;11.38;5.07;;;;;;;6.33;59.53;99600.69;4394683;32;20105;-84
2023/03/23 03:04:30;;;;;;;9.85;4.95;;;;;;;6.22;59.53;99606.94;4380620;32;20090;-84
2023/03/23 03:07:28;;;;;;;12.48;5.45;;;;;;;5.98;59.51;99605.63;4373406;32;20106;-84
2023/03/23 03:10:04;;;;;;;11.68;5.03;;;;;;;6.02;59.52;99605.53;4394588;32;20193;-84
2023/03/23 03:12:35;;;;;;;11.98;5.60;;;;;;;6.14;59.53;99604.47;4382130;32;20090;-85
2023/03/23 03:15:07;;;;;;;10.57;5.65;;;;;;;6.19;59.52;99600.09;4399252;32;20450;-85
2023/03/23 03:17:32;;;;;;;11.57;5.20;;;;;;;6.17;59.53;99606.19;4406837;32;20109;-85
2023/03/23 03:20:03;;;;;;;14.07;5.10;;;;;;;6.20;59.53;99601.81;4372928;32;20133;-85
2023/03/23 03:22:29;;;;;;;9.23;5.47;;;;;;;6.19;59.53;99602.69;4382122;32;20112;-86
2023/03/23 03:24:56;;;;;;;14.38;5.65;;;;;;;6.23;59.53;99599.16;4382264;32;20130;-85
2023/03/23 03:27:22;;;;;;;12.70;5.22;;;;;;;6.38;59.53;99603.19;4382091;32;20103;-85
2023/03/23 03:29:51;;;;;;;10.27;5.82;;;;;;;6.23;59.53;99609.50;4382118;32;20098;-85
2023/03/23 03:32:19;;;;;;;13.90;5.70;;;;;;;6.28;59.54;99609.41;4379712;32;20201;-86
2023/03/23 03:34:45;;;;;;;14.65;5.55;;;;;;;6.28;59.54;99606.84;4367093;32;20082;-86
2023/03/23 03:37:11;;;;;;;13.62;6.03;;;;;;;6.29;59.54;99611.97;4368761;32;20913;-86
2023/03/23 03:39:37;;;;;;;12.75;5.75;;;;;;;6.28;59.53;99615.44;4386893;32;20106;-85
2023/03/23 03:42:03;;;;;;;10.60;5.00;;;;;;;6.23;59.53;99619.84;4380805;32;20672;-85
2023/03/23 03:44:28;;;;;;;14.40;5.90;;;;;;;6.27;59.54;99611.16;4381316;32;20155;-83
2023/03/23 03:46:54;;;;;;;12.93;6.22;;;;;;;6.21;59.53;99615.56;4381445;32;20403;-85
2023/03/23 03:49:19;;;;;;;10.65;4.97;;;;;;;6.07;59.52;99620.97;4400379;32;20401;-84
2023/03/23 03:51:45;;;;;;;10.52;6.40;;;;;;;6.15;59.53;99614.81;4392975;32;20106;-84
2023/03/23 03:54:10;;;;;;;9.77;5.53;;;;;;;6.18;59.52;99621.66;4366842;32;20432;-84
2023/03/23 03:56:40;;;;;;;13.40;5.62;;;;;;;6.15;59.53;99622.56;4378709;32;20475;-85
2023/03/23 03:59:06;;;;;;;9.30;5.28;;;;;;;6.17;59.53;99612.19;4367315;32;20117;-85
2023/03/23 04:01:32;;;;;;;11.35;5.82;;;;;;;6.14;59.53;99619.97;4366432;32;20116;-84
2023/03/23 04:03:57;;;;;;;10.45;5.50;;;;;;;6.11;59.51;99628.63;4392715;32;20126;-85
2023/03/23 04:06:22;;;;;;;11.38;5.93;;;;;;;6.23;59.53;99625.00;4366504;32;20143;-84
2023/03/23 04:08:48;;;;;;;11.18;5.37;;;;;;;6.24;59.53;99624.12;4366441;32;20411;-84
2023/03/23 04:11:14;;;;;;;11.93;6.10;;;;;;;6.13;59.53;99637.22;4365979;32;20426;-84
2023/03/23 04:13:40;;;;;;;9.70;5.53;;;;;;;6.07;59.52;99633.88;4354374;32;20507;-85
2023/03/23 04:16:06;;;;;;;9.25;5.28;;;;;;;6.04;59.51;99633.94;4378733;32;20099;-85
2023/03/23 04:18:32;;;;;;;10.07;5.03;;;;;;;6.15;59.52;99637.19;4379178;32;20133;-85
2023/03/23 04:20:59;;;;;;;11.23;5.62;;;;;;;5.97;59.51;99634.91;4378993;32;20116;-84
2023/03/23 04:23:24;;;;;;;11.93;5.43;;;;;;;6.06;59.52;99627.84;4392680;32;20160;-85
2023/03/23 04:25:51;;;;;;;10.35;5.10;;;;;;;5.94;59.51;99633.22;4392442;32;20463;-84
2023/03/23 04:28:18;;;;;;;12.45;5.10;;;;;;;5.84;59.51;99631.59;4367133;32;20110;-84
2023/03/23 04:30:44;;;;;;;12.90;5.28;;;;;;;5.93;59.51;99633.25;4393059;32;20374;-85
2023/03/23 04:33:14;;;;;;;10.93;5.32;;;;;;;5.80;59.50;99641.13;4379127;32;20094;-84
2023/03/23 04:35:39;;;;;;;8.55;4.97;;;;;;;5.91;59.52;99640.13;4366766;32;20106;-84
2023/03/23 04:38:05;;;;;;;9.45;5.40;;;;;;;6.00;59.51;99633.13;4366218;32;20169;-84
2023/03/23 04:40:30;;;;;;;10.98;4.90;;;;;;;6.06;59.52;99629.59;4392395;32;20157;-84
2023/03/23 04:42:58;;;;;;;9.40;4.95;;;;;;;6.05;59.51;99626.16;4392327;32;21762;-85
2023/03/23 04:45:24;;;;;;;14.38;5.43;;;;;;;6.06;59.52;99622.69;4366526;32;20455;-84
2023/03/23 04:47:52;;;;;;;12.20;5.78;;;;;;;6.02;59.51;99633.09;4392390;32;20086;-86
2023/03/23 04:50:20;;;;;;;11.98;5.70;;;;;;;5.98;59.51;99634.03;4367820;32;20161;-85
2023/03/23 04:52:45;;;;;;;15.00;5.43;;;;;;;6.06;59.52;99632.16;4372539;32;20167;-83
2023/03/23 04:55:11;;;;;;;11.07;6.35;;;;;;;6.05;59.51;99636.47;4378526;32;20150;-84
2023/03/23 04:57:36;;;;;;;13.57;6.03;;;;;;;6.24;59.52;99631.03;4365244;32;20118;-83
2023/03/23 05:00:08;;;;;;;10.32;5.22;;;;;;;6.03;59.52;99629.63;4366024;32;20167;-83
2023/03/23 05:02:35;;;;;;;12.90;6.03;;;;;;;6.26;59.52;99630.13;4379470;32;20129;-83
2023/03/23 05:05:01;;;;;;;11.60;6.05;;;;;;;6.24;59.53;99628.44;4353847;32;20168;-85
2023/03/23 05:07:26;;;;;;;12.13;6.25;;;;;;;6.14;59.53;99632.88;4365890;32;20399;-84
2023/03/23 05:09:52;;;;;;;15.20;7.15;;;;;;;6.20;59.53;99632.81;4392585;32;20153;-85
2023/03/23 05:12:17;;;;;;;11.32;6.20;;;;;;;6.35;59.54;99639.44;4366167;32;20427;-85
2023/03/23 05:14:43;;;;;;;13.90;6.18;;;;;;;6.49;59.54;99644.41;4378480;32;20141;-85
2023/03/23 05:17:08;;;;;;;15.57;6.82;;;;;;;6.57;59.54;99640.78;4378548;32;20409;-84
2023/03/23 05:19:35;;;;;;;12.82;6.72;;;;;;;6.57;59.54;99640.78;4365961;32;20344;-84
2023/03/23 05:22:03;;;;;;;14.50;6.37;;;;;;;6.54;59.54;99640.84;4365975;32;20098;-85
2023/03/23 05:24:32;;;;;;;11.73;6.10;;;;;;;6.68;59.55;99640.63;4366690;32;20128;-84
2023/03/23 05:27:01;;;;;;;12.23;5.93;;;;;;;6.78;59.55;99636.97;4366220;32;20541;-85
2023/03/23 05:29:30;;;;;;;12.10;5.95;;;;;;;6.87;59.56;99636.81;4378617;32;20448;-85
2023/03/23 05:31:59;;;;;;;14.10;7.57;;;;;;;7.01;59.56;99637.38;4378478;32;20102;-84
2023/03/23 05:34:26;;;;;;;34.08;18.02;;;;;;;7.04;59.57;99636.47;4367014;32;20105;-84
2023/03/23 05:36:53;;;;;;;27.83;14.48;;;;;;;7.05;59.58;99645.94;4366169;32;20161;-84
2023/03/23 05:39:18;;;;;;;25.67;12.88;;;;;;;7.13;59.58;99635.47;4366123;32;20164;-84
2023/03/23 05:41:44;;;;;;;22.05;10.65;;;;;;;7.33;59.59;99630.69;4365676;32;20156;-86
2023/03/23 05:44:09;;;;;;;20.73;10.30;;;;;;;7.42;59.60;99638.31;4366068;32;20166;-82
2023/03/23 05:46:35;;;;;;;21.15;10.95;;;;;;;7.75;59.61;99625.50;4366035;32;20121;-84
2023/03/23 05:49:00;;;;;;;22.35;11.07;;;;;;;8.08;59.63;99616.09;4392184;32;20162;-84
2023/03/23 05:51:26;;;;;;;24.17;11.25;;;;;;;8.22;59.64;99620.03;4376912;32;20134;-83
2023/03/23 05:53:52;;;;;;;23.60;11.45;;;;;;;8.35;59.64;99623.22;4365547;32;20098;-84
2023/03/23 05:56:17;;;;;;;21.98;11.65;;;;;;;8.55;59.66;99618.41;4364915;32;20153;-83
2023/03/23 05:58:43;;;;;;;19.17;9.35;;;;;;;8.81;59.67;99611.66;4365790;32;20093;-83
2023/03/23 06:01:08;;;;;;;18.70;8.75;;;;;;;8.92;59.68;99610.47;4364773;32;20131;-83
2023/03/23 06:03:35;;;;;;;17.75;8.85;;;;;;;8.99;59.69;99608.56;4378194;32;20537;-84
2023/03/23 06:06:02;;;;;;;14.55;8.02;;;;;;;9.17;59.69;99615.81;4365995;32;20113;-84
2023/03/23 06:08:28;;;;;;;16.35;8.88;;;;;;;9.30;59.70;99612.87;4368614;32;20127;-85
2023/03/23 06:10:55;;;;;;;16.08;8.15;;;;;;;9.66;59.72;99605.72;4368478;32;20705;-83
2023/03/23 06:13:20;;;;;;;20.00;10.27;;;;;;;9.70;59.72;99603.03;4383196;32;20132;-85
2023/03/23 06:15:46;;;;;;;24.70;10.07;;;;;;;9.96;59.74;99601.34;4370167;32;20158;-84
2023/03/23 06:18:12;;;;;;;18.45;9.68;;;;;;;10.18;59.75;99612.78;4370154;32;20153;-83
2023/03/23 06:20:38;;;;;;;23.17;10.00;;;;;;;10.32;59.76;99604.53;4370315;32;20651;-84
2023/03/23 06:23:04;;;;;;;19.37;10.32;;;;;;;10.46;59.76;99607.53;4382500;32;20440;-84
2023/03/23 06:25:30;;;;;;;25.67;9.90;;;;;;;10.48;59.76;99603.13;4394549;32;20093;-84
2023/03/23 06:27:55;;;;;;;22.48;11.48;;;;;;;10.70;59.78;99598.03;4396361;32;20218;-84
2023/03/23 06:30:21;;;;;;;21.35;10.63;;;;;;;10.94;59.79;99596.31;4382112;32;20471;-84
2023/03/23 06:32:47;;;;;;;16.58;9.77;;;;;;;11.21;59.80;99591.84;4382688;32;20168;-84
2023/03/23 06:35:13;;;;;;;22.20;9.43;;;;;;;11.19;59.80;99591.91;4370399;32;20101;-83
2023/03/23 06:37:38;;;;;;;25.25;9.13;;;;;;;11.51;59.81;99584.63;4392437;32;20097;-84
2023/03/23 06:40:07;;;;;;;16.83;9.00;;;;;;;11.54;59.82;99584.50;4395576;32;20143;-84
2023/03/23 06:42:33;;;;;;;20.05;8.95;;;;;;;11.76;59.84;99582.75;4382402;32;20363;-84
2023/03/23 06:45:00;;;;;;;18.62;9.13;;;;;;;12.02;59.85;99592.19;4368913;32;20218;-84
2023/03/23 06:47:26;;;;;;;15.85;8.73;;;;;;;12.17;59.85;99596.78;4381534;32;20446;-85
2023/03/23 06:49:51;;;;;;;18.05;9.02;;;;;;;12.14;59.86;99596.06;4386718;32;20078;-84
2023/03/23 06:52:17;;;;;;;18.27;9.65;;;;;;;12.31;59.87;99598.00;4397257;32;20161;-83
2023/03/23 06:54:43;;;;;;;18.83;9.45;;;;;;;12.57;59.87;99595.13;4397299;32;20102;-84
2023/03/23 06:57:08;;;;;;;18.27;8.75;;;;;;;12.60;59.88;99589.78;4397100;32;20423;-83
2023/03/23 06:59:33;;;;;;;13.05;8.52;;;;;;;12.94;59.90;99594.38;4396973;32;20090;-84
2023/03/23 07:01:59;;;;;;;18.48;8.55;;;;;;;13.19;59.92;99596.78;4396896;32;20157;-84
2023/03/23 07:04:24;;;;;;;14.25;8.50;;;;;;;13.23;59.91;99589.63;4397246;32;20110;-84
2023/03/23 07:06:50;;;;;;;17.27;8.93;;;;;;;13.34;59.92;99595.25;4411030;32;20113;-83
2023/03/23 07:09:16;;;;;;;15.27;8.77;;;;;;;13.53;59.93;99588.25;4397183;32;20144;-84
2023/03/23 07:11:41;;;;;;;17.70;9.20;;;;;;;13.58;59.94;99590.66;4372105;32;20118;-83
2023/03/23 07:14:07;;;;;;;16.35;8.13;;;;;;;13.57;59.92;99595.03;4397114;32;20166;-84
2023/03/23 07:16:32;;;;;;;16.40;8.73;;;;;;;13.79;59.95;99594.88;4384073;32;20116;-84
2023/03/23 07:18:59;;;;;;;17.23;9.73;;;;;;;14.01;59.95;99597.31;4395860;32;20137;-84
2023/03/23 07:21:25;;;;;;;18.98;8.60;;;;;;;14.06;59.96;99598.78;4381825;32;20128;-84
2023/03/23 07:23:51;;;;;;;14.02;8.73;;;;;;;14.27;59.97;99596.03;4381928;32;20174;-84
2023/03/23 07:26:16;;;;;;;14.18;8.55;;;;;;;14.58;59.99;99593.59;4382130;32;20699;-84
2023/03/23 07:28:42;;;;;;;15.95;9.13;;;;;;;14.76;59.99;99591.81;4368810;32;23303;-84
2023/03/23 07:31:08;;;;;;;15.50;7.97;;;;;;;14.84;60.00;99594.88;4394323;32;20150;-84
2023/03/23 07:33:35;;;;;;;15.75;8.90;;;;;;;14.94;60.00;99592.62;4382034;32;20545;-84
2023/03/23 07:36:01;;;;;;;17.40;9.10;;;;;;;15.10;60.02;99593.50;4394384;32;20086;-83
2023/03/23 07:38:27;;;;;;;20.40;8.77;;;;;;;15.35;60.03;99604.37;4381615;32;20172;-84
2023/03/23 07:40:53;;;;;;;17.75;8.00;;;;;;;15.42;60.03;99594.41;4381844;32;20102;-84
2023/03/23 07:43:19;;;;;;;15.10;8.10;;;;;;;15.63;60.05;99602.94;4381547;32;20120;-84
2023/03/23 07:45:44;;;;;;;12.25;7.62;;;;;;;15.91;60.05;99603.09;4394446;32;20094;-84
2023/03/23 07:48:10;;;;;;;15.57;8.68;;;;;;;15.96;60.07;99608.06;4381296;32;20118;-84
2023/03/23 07:50:36;;;;;;;13.62;6.93;;;;;;;16.19;60.07;99602.34;4378957;32;20150;-84
2023/03/23 07:53:02;;;;;;;16.75;7.85;;;;;;;16.34;60.08;99595.38;4379474;32;20114;-84
2023/03/23 07:55:28;;;;;;;8.20;4.72;;;;;;;16.53;60.09;99601.22;4393467;32;20479;-84
2023/03/23 07:57:53;;;;;;;9.55;4.70;;;;;;;16.88;60.11;99598.34;4380335;32;20178;-84
2023/03/23 08:00:20;;;;;;;7.55;4.97;;;;;;;17.08;60.13;99597.97;4380325;32;20158;-84
2023/03/23 08:02:46;;;;;;;7.78;5.05;;;;;;;17.27;60.13;99602.09;4380458;32;20154;-84
2023/03/23 08:05:13;;;;;;;16.85;6.60;;;;;;;17.34;60.14;99591.09;4380388;32;20086;-83
2023/03/23 08:07:39;;;;;;;10.20;5.75;;;;;;;17.39;60.14;99593.44;4368083;32;20095;-83
2023/03/23 08:10:06;;;;;;;11.75;6.32;;;;;;;17.66;60.15;99591.69;4380438;32;20168;-84
2023/03/23 08:12:31;;;;;;;11.48;6.68;;;;;;;17.81;60.16;99589.06;4380514;32;20144;-85
2023/03/23 08:14:56;;;;;;;11.82;5.70;;;;;;;18.00;60.17;99584.31;4380260;32;20162;-84
2023/03/23 08:17:22;;;;;;;10.90;5.87;;;;;;;18.03;60.17;99592.84;4380157;32;20149;-84
2023/03/23 08:19:47;;;;;;;9.45;6.00;;;;;;;18.03;60.17;99598.13;4380286;32;20142;-84
2023/03/23 08:22:13;;;;;;;9.63;5.85;;;;;;;18.09;60.18;99596.87;4379745;32;20234;-84
2023/03/23 08:24:39;;;;;;;7.18;5.25;;;;;;;18.34;60.19;99596.94;4367763;32;20482;-84
2023/03/23 08:27:06;;;;;;;8.70;5.70;;;;;;;18.55;60.20;99597.31;4380140;32;20098;-84
2023/03/23 08:29:34;;;;;;;12.23;5.80;;;;;;;18.46;60.21;99602.38;4393876;32;20087;-83
2023/03/23 08:31:59;;;;;;;11.00;5.43;;;;;;;18.68;60.20;99605.25;4380239;32;20149;-84
2023/03/23 08:34:25;;;;;;;12.80;5.95;;;;;;;18.77;60.21;99601.16;4380026;32;20383;-84
2023/03/23 08:36:51;;;;;;;10.93;6.43;;;;;;;18.87;60.22;99597.78;4379897;32;20195;-84
2023/03/23 08:39:17;;;;;;;12.07;7.72;;;;;;;18.94;60.22;99606.97;4393910;32;20091;-84
2023/03/23 08:41:43;;;;;;;12.50;6.18;;;;;;;19.15;60.23;99609.06;4380194;32;20106;-84
2023/03/23 08:44:09;;;;;;;11.10;6.72;;;;;;;19.37;60.24;99608.41;4367594;32;20086;-84
2023/03/23 08:46:34;;;;;;;14.10;6.60;;;;;;;19.50;60.25;99607.44;4379930;32;20147;-84
2023/03/23 08:49:00;;;;;;;9.95;6.03;;;;;;;19.74;60.26;99598.75;4379755;32;20142;-84
2023/03/23 08:51:26;;;;;;;20.02;6.87;;;;;;;19.70;60.27;99600.78;4408427;32;20116;-85
2023/03/23 08:53:52;;;;;;;12.32;6.43;;;;;;;19.75;60.26;99605.72;4395026;32;20147;-84
2023/03/23 08:56:17;;;;;;;9.75;5.62;;;;;;;19.94;60.28;99608.72;4370476;32;20443;-84
2023/03/23 08:58:43;;;;;;;9.30;6.03;;;;;;;19.99;60.28;99609.22;4395169;32;20098;-85
2023/03/23 09:01:09;;;;;;;10.25;6.03;;;;;;;19.92;60.29;99611.47;4395229;32;20470;-85
2023/03/23 09:03:37;;;;;;;12.77;6.18;;;;;;;19.95;60.28;99602.47;4382770;32;20094;-84
2023/03/23 09:06:05;;;;;;;11.50;6.25;;;;;;;19.91;60.27;99607.16;4409073;32;20415;-84
2023/03/23 09:08:31;;;;;;;8.45;5.55;;;;;;;20.07;60.28;99604.22;4382612;32;20103;-84
2023/03/23 09:11:00;;;;;;;9.52;5.55;;;;;;;20.19;60.29;99598.03;4408930;32;20098;-84
2023/03/23 09:13:25;;;;;;;8.93;6.28;;;;;;;20.28;60.29;99598.31;4382411;32;20486;-83
2023/03/23 09:15:51;;;;;;;11.10;6.65;;;;;;;20.57;60.31;99593.50;4382512;32;20101;-84
2023/03/23 09:18:18;;;;;;;10.38;6.32;;;;;;;20.69;60.31;99589.94;4394915;32;20106;-84
2023/03/23 09:20:43;;;;;;;10.23;6.22;;;;;;;20.76;60.32;99586.69;4408843;32;20522;-84
2023/03/23 09:23:09;;;;;;;11.88;6.47;;;;;;;20.93;60.33;99593.34;4382197;32;20085;-85
2023/03/23 09:25:34;;;;;;;12.13;6.35;;;;;;;21.12;60.34;99588.31;4382475;32;20448;-84
2023/03/23 09:28:00;;;;;;;11.65;6.45;;;;;;;21.09;60.34;99585.91;4382264;32;20161;-84
2023/03/23 09:30:30;;;;;;;10.93;6.37;;;;;;;21.14;60.34;99589.03;4394825;32;20114;-84
2023/03/23 09:32:56;;;;;;;10.93;6.55;;;;;;;21.34;60.35;99602.53;4382499;32;20085;-84
2023/03/23 09:35:22;;;;;;;8.13;5.97;;;;;;;21.44;60.36;99583.16;4394751;32;20129;-84
2023/03/23 09:37:48;;;;;;;8.55;6.00;;;;;;;21.59;60.37;99580.25;4369519;32;20119;-85
2023/03/23 09:40:19;;;;;;;9.95;7.12;;;;;;;21.74;60.37;99577.19;4382266;32;20470;-85
2023/03/23 09:42:56;;;;;;;14.25;6.90;;;;;;;21.95;60.39;99579.91;4369156;32;20086;-84
2023/03/23 09:45:30;;;;;;;14.75;7.93;;;;;;;22.11;60.40;99571.59;4408505;32;20082;-85
2023/03/23 09:48:11;;;;;;;15.13;7.45;;;;;;;22.30;60.40;99573.56;4394633;32;20114;-84
2023/03/23 09:50:37;;;;;;;11.12;6.40;;;;;;;22.58;60.42;99569.44;4376864;32;188657;-84
2023/03/23 09:53:08;;;;;;;12.05;6.62;;;;;;;22.84;60.43;99565.41;4381884;32;20492;-85
2023/03/23 09:55:34;;;;;;;9.35;6.72;;;;;;;23.01;60.44;99561.31;4382330;32;20086;-84
2023/03/23 09:58:03;;;;;;;10.77;6.68;;;;;;;23.11;60.45;99553.38;4381938;32;20126;-84
2023/03/23 10:00:39;;;;;;;12.13;6.10;;;;;;;23.25;60.45;99548.56;4382193;32;20109;-84
2023/03/23 10:03:19;;;;;;;11.07;5.57;;;;;;;23.50;60.47;99560.53;4394396;32;20089;-84
2023/03/23 10:05:45;;;;;;;;;;;;;;;23.62;60.47;99561.28;4382356;32;20086;-84
2023/03/23 10:08:18;;;;;;;10.80;6.00;;;;;;;23.86;60.49;99560.88;4381820;32;19997;-83
2023/03/23 10:10:56;;;;;;;15.18;6.90;;;;;;;23.92;60.49;99549.72;4382294;32;20144;-84
2023/03/23 10:13:45;;;;;;;9.93;5.97;;;;;;;24.12;60.50;99543.41;4381659;32;20116;-83
2023/03/23 10:16:14;;;;;;;9.93;6.22;;;;;;;24.16;60.50;99536.00;4408196;32;20217;-83
2023/03/23 10:18:55;;;;;;;10.77;5.87;;;;;;;24.11;60.50;99530.25;4381846;32;20463;-83
2023/03/23 10:21:22;;;;;;;8.13;5.97;;;;;;;24.27;60.51;99535.00;4394344;32;20102;-84
2023/03/23 10:23:58;;;;;;;10.20;5.15;;;;;;;24.31;60.51;99523.13;4381725;32;20502;-84
2023/03/23 10:26:41;;;;;;;9.10;5.60;;;;;;;24.52;60.53;99518.47;4381837;32;20116;-84
2023/03/23 10:29:23;;;;;;;8.77;5.35;;;;;;;24.63;60.53;99510.34;4394145;32;20113;-84
2023/03/23 10:32:02;;;;;;;10.40;5.72;;;;;;;24.59;60.54;99513.41;4381590;32;20137;-83
2023/03/23 10:34:35;;;;;;;6.65;4.07;;;;;;;24.71;60.53;99517.59;4394050;32;20172;-84
2023/03/23 10:37:02;;;;;;;7.18;3.60;;;;;;;24.89;60.54;99505.22;4393628;32;20113;-84
2023/03/23 10:39:32;;;;;;;4.82;2.78;;;;;;;24.78;60.54;99498.22;4394016;32;20136;-84
2023/03/23 10:42:06;;;;;;;8.75;2.67;;;;;;;24.76;60.54;99497.53;4381750;32;20132;-84
2023/03/23 10:44:32;;;;;;;5.05;2.80;;;;;;;24.94;60.55;99478.97;4382729;32;20500;-84
2023/03/23 10:47:00;;;;;;;7.18;3.10;;;;;;;24.75;60.54;99495.88;4393737;32;20447;-84
2023/03/23 10:49:28;;;;;;;6.12;2.97;;;;;;;24.62;60.53;99489.19;4381567;32;20113;-83
2023/03/23 10:52:07;;;;;;;4.37;2.40;;;;;;;24.62;60.53;99495.38;4381462;32;20086;-84
2023/03/23 10:54:41;;;;;;;4.10;2.53;;;;;;;24.79;60.54;99485.75;4382053;32;20154;-84
2023/03/23 10:57:20;;;;;;;3.05;2.03;;;;;;;24.56;60.53;99487.09;4384227;32;20133;-83
2023/03/23 10:59:45;;;;;;;4.20;2.03;;;;;;;24.53;60.53;99492.72;4384049;32;20102;-84
2023/03/23 11:02:15;;;;;;;3.70;1.87;;;;;;;24.51;60.52;99494.69;4383271;32;20123;-84
2023/03/23 11:04:46;;;;;;;5.93;2.62;;;;;;;24.57;60.53;99494.09;4383334;32;20223;-84
2023/03/23 11:07:17;;;;;;;6.43;2.30;;;;;;;24.70;60.53;99495.47;4384071;32;20474;-84
2023/03/23 11:09:52;;;;;;;4.57;2.10;;;;;;;24.79;60.55;99493.75;4383766;32;20122;-84
2023/03/23 11:12:19;;;;;;;2.55;1.52;;;;;;;24.92;60.55;99488.09;4382835;32;20105;-84
2023/03/23 11:14:44;;;;;;;5.00;2.20;;;;;;;25.14;60.57;99479.75;4383073;32;20094;-84
2023/03/23 11:17:26;;;;;;;2.25;1.65;;;;;;;25.30;60.57;99479.09;4383139;32;20378;-84
2023/03/23 11:19:54;;;;;;;2.85;1.67;;;;;;;25.43;60.57;99478.75;4383193;32;20098;-84
2023/03/23 11:22:23;;;;;;;4.43;1.60;;;;;;;25.43;60.57;99468.09;4370892;32;20124;-83
2023/03/23 11:24:54;;;;;;;2.28;1.45;;;;;;;25.62;60.59;99463.47;4395994;32;20156;-83
2023/03/23 11:27:20;;;;;;;3.40;1.60;;;;;;;25.58;60.58;99461.25;4383792;32;20156;-84
2023/03/23 11:29:59;;;;;;;5.00;1.48;;;;;;;25.59;60.58;99460.25;4383230;32;20106;-83
2023/03/23 11:32:31;;;;;;;7.30;1.75;;;;;;;25.47;60.58;99453.47;4383285;32;20163;-84
2023/03/23 11:35:00;;;;;;;2.72;1.52;;;;;;;25.23;60.57;99460.22;4370535;32;20094;-84